Circleville, New York
Current Conditions -  °F | °C
As of 9:54 PM on Tuesday 21 Oct 2014 (Local Time) from KMGJ Reporting Station
Light Rain Light Rain  
Wind Chill: 52°   Ceiling: 700
Heat Index: 52°   Visibility: 10mi
Dew Point: 50°   Wind: 12mph
Humidity: 93%   Direction: 40°NE
Pressure: 29.93"   Gusts: NA
Location:  41.51°N, 74.38°W
Report Text: KMGJ 220154Z AUTO 04010KT 10SM -RA OVC007 11/10 A2993 RMK AO2 RAB14 SLP137 P0000 T01110100 TSNO
Loading
Personal Weather Stations






























Interactive Weather Map
Tropical Storm Tracking
New forecast layout! Learn more

10-Day Weather Forecast

Advertisements
Track Severe Weather on mobile